Time;durP1;ratioP1;P1;durP2;ratioP2;P2;SDS_P1;SDS_P2;PMS_P1;PMS_P2;Temp;Humidity;BMP_temperature;BMP_pressure;BME280_temperature;BME280_humidity;BME280_pressure;Samples;Min_cycle;Max_cycle;Signal;HPM_P1;HPM_P2
2021/12/31 00:02:02;;;;;;;1.60;1.20;;;;;;;10.61;100.00;100459.19;7400767;19;20403;-57
2021/12/31 00:04:32;;;;;;;3.70;2.20;;;;;;;10.68;100.00;100434.50;7392639;19;20430;-54
2021/12/31 00:07:02;;;;;;;3.00;2.33;;;;;;;10.68;100.00;100439.66;7396900;19;20460;-58
2021/12/31 00:09:34;;;;;;;4.37;2.53;;;;;;;10.69;100.00;100433.66;7393690;19;20429;-57
2021/12/31 00:12:04;;;;;;;3.13;2.77;;;;;;;10.65;100.00;100435.25;7398072;19;20388;-57
2021/12/31 00:14:33;;;;;;;2.50;2.00;;;;;;;10.67;100.00;100438.75;7394386;19;20403;-57
2021/12/31 00:17:03;;;;;;;3.63;3.33;;;;;;;10.73;100.00;100437.22;7397347;19;20487;-58
2021/12/31 00:19:37;;;;;;;4.47;2.67;;;;;;;10.75;100.00;100426.13;7394209;19;20426;-55
2021/12/31 00:22:28;;;;;;;3.40;2.93;;;;;;;10.80;100.00;100431.47;7397921;19;20387;-58
2021/12/31 00:25:00;;;;;;;2.37;1.90;;;;;;;10.79;100.00;100427.13;7392751;19;20474;-56
2021/12/31 00:27:29;;;;;;;3.10;2.30;;;;;;;10.86;100.00;100429.09;7396933;19;20408;-59
2021/12/31 00:29:59;;;;;;;2.20;1.60;;;;;;;10.85;100.00;100442.84;7393834;19;20441;-58
2021/12/31 00:32:28;;;;;;;4.13;2.90;;;;;;;10.86;100.00;100438.56;7397875;19;20376;-58
2021/12/31 00:34:58;;;;;;;3.83;2.50;;;;;;;10.87;100.00;100438.59;7394123;19;20398;-55
2021/12/31 00:37:28;;;;;;;6.70;4.20;;;;;;;10.88;100.00;100453.25;7396553;19;20490;-57
2021/12/31 00:40:00;;;;;;;7.63;4.00;;;;;;;10.86;100.00;100449.75;7392366;19;20474;-58
2021/12/31 00:42:30;;;;;;;4.97;2.80;;;;;;;10.86;100.00;100454.91;7398482;19;20447;-54
2021/12/31 00:44:59;;;;;;;5.57;3.63;;;;;;;10.85;100.00;100442.84;7392347;19;20411;-59
2021/12/31 00:47:29;;;;;;;7.63;4.77;;;;;;;10.86;100.00;100430.81;7397686;19;20411;-56
2021/12/31 00:49:58;;;;;;;6.80;2.80;;;;;;;10.82;100.00;100437.53;7395292;19;20424;-58
2021/12/31 00:52:28;;;;;;;5.13;3.40;;;;;;;10.87;100.00;100438.59;7398833;19;20679;-57
2021/12/31 00:55:00;;;;;;;4.40;2.60;;;;;;;10.82;100.00;100437.53;7394240;19;20894;-57
2021/12/31 00:57:30;;;;;;;9.47;4.33;;;;;;;10.82;100.00;100447.88;7400031;19;20483;-58
2021/12/31 00:59:59;;;;;;;7.40;4.33;;;;;;;10.84;100.00;100446.25;7394943;19;20891;-59
2021/12/31 01:02:29;;;;;;;5.10;2.60;;;;;;;10.82;100.00;100455.59;7398944;19;20408;-58
2021/12/31 01:04:59;;;;;;;6.10;4.10;;;;;;;10.83;100.00;100444.50;7397277;19;20507;-57
2021/12/31 01:07:29;;;;;;;6.17;4.13;;;;;;;10.81;100.00;100464.19;7397451;19;20407;-54
2021/12/31 01:10:02;;;;;;;8.40;4.50;;;;;;;10.81;100.00;100469.34;7394688;19;20482;-57
2021/12/31 01:12:33;;;;;;;6.20;4.93;;;;;;;10.82;100.00;100453.03;7397053;19;20400;-56
2021/12/31 01:15:03;;;;;;;5.83;4.20;;;;;;;10.82;100.00;100459.91;7392432;19;20547;-55
2021/12/31 01:17:49;;;;;;;16.90;5.83;;;;;;;10.83;100.00;100452.22;7397668;19;20426;-58
2021/12/31 01:20:21;;;;;;;8.53;5.20;;;;;;;10.83;100.00;100454.81;7394149;19;20479;-54
2021/12/31 01:22:51;;;;;;;9.90;4.67;;;;;;;10.80;100.00;100450.41;7398012;19;20380;-56
2021/12/31 01:25:23;;;;;;;9.97;6.50;;;;;;;10.84;100.00;100456.56;7393533;19;20882;-55
2021/12/31 01:27:52;;;;;;;10.00;6.63;;;;;;;10.81;100.00;100456.44;7397163;19;20423;-55
2021/12/31 01:30:22;;;;;;;10.80;5.20;;;;;;;10.78;100.00;100448.59;7394097;19;20685;-57
2021/12/31 01:32:52;;;;;;;10.63;4.97;;;;;;;10.75;100.00;100453.63;7397733;19;20383;-55
2021/12/31 01:35:23;;;;;;;12.40;5.70;;;;;;;10.78;100.00;100453.75;7393388;19;20494;-55
2021/12/31 01:37:52;;;;;;;11.50;5.63;;;;;;;10.80;100.00;100457.25;7397836;19;20419;-58
2021/12/31 01:40:24;;;;;;;9.87;4.77;;;;;;;10.79;100.00;100465.84;7393424;19;20414;-57
2021/12/31 01:42:54;;;;;;;10.47;6.73;;;;;;;10.81;100.00;100471.91;7397896;19;20402;-53
2021/12/31 01:45:28;;;;;;;15.33;5.10;;;;;;;10.79;100.00;100478.75;7393286;19;20475;-56
2021/12/31 01:48:10;;;;;;;14.13;7.13;;;;;;;10.79;100.00;100471.88;7401171;19;20439;-54
2021/12/31 01:50:39;;;;;;;7.80;4.23;;;;;;;10.77;100.00;100483.84;7394026;19;20407;-54
2021/12/31 01:53:09;;;;;;;8.87;5.97;;;;;;;10.81;100.00;100487.41;7399274;19;20731;-56
2021/12/31 01:55:41;;;;;;;5.40;4.07;;;;;;;10.79;100.00;100482.22;7392863;19;20532;-54
2021/12/31 01:58:11;;;;;;;10.93;5.30;;;;;;;10.79;100.00;100489.94;7402155;19;20884;-56
2021/12/31 02:00:41;;;;;;;21.63;5.83;;;;;;;10.79;100.00;100484.78;7401730;19;20926;-57
2021/12/31 02:03:10;;;;;;;22.40;6.93;;;;;;;10.79;100.00;100494.22;7404266;19;20387;-56
2021/12/31 02:05:40;;;;;;;15.37;6.63;;;;;;;10.81;100.00;100489.97;7399458;19;20445;-58
2021/12/31 02:08:10;;;;;;;13.20;5.50;;;;;;;10.79;100.00;100497.69;7402865;19;20881;-55
2021/12/31 02:10:42;;;;;;;10.30;5.40;;;;;;;10.77;100.00;100495.88;7400297;19;20895;-53
2021/12/31 02:13:12;;;;;;;16.67;6.10;;;;;;;10.78;100.00;100502.78;7403624;19;20387;-57
2021/12/31 02:15:42;;;;;;;10.30;5.80;;;;;;;10.78;100.00;100500.22;7398708;19;20714;-54
2021/12/31 02:18:11;;;;;;;13.77;4.00;;;;;;;10.75;100.00;100500.97;7402450;19;20483;-55
2021/12/31 02:20:47;;;;;;;14.73;5.63;;;;;;;10.74;100.00;100501.81;7399876;19;20908;-57
2021/12/31 02:23:17;;;;;;;12.57;5.33;;;;;;;10.73;100.00;100506.91;7403665;19;20759;-55
2021/12/31 02:25:47;;;;;;;10.23;5.83;;;;;;;10.74;100.00;100495.75;7397654;19;20415;-56
2021/12/31 02:28:16;;;;;;;11.70;5.80;;;;;;;10.73;100.00;100496.56;7401789;19;20424;-54
2021/12/31 02:30:46;;;;;;;14.07;5.03;;;;;;;10.72;100.00;100494.81;7398845;19;20743;-56
2021/12/31 02:33:16;;;;;;;11.80;5.80;;;;;;;10.69;100.00;100492.13;7400678;19;20689;-54
2021/12/31 02:35:48;;;;;;;13.63;5.80;;;;;;;10.66;100.00;100509.25;7398858;19;20415;-54
2021/12/31 02:38:17;;;;;;;15.03;7.10;;;;;;;10.66;100.00;100504.09;7401674;19;20428;-56
2021/12/31 02:40:47;;;;;;;9.40;4.60;;;;;;;10.65;100.00;100504.03;7399714;19;20416;-56
2021/12/31 02:43:16;;;;;;;30.53;7.30;;;;;;;10.67;100.00;100495.53;7402712;19;20413;-58
2021/12/31 02:45:47;;;;;;;16.40;7.50;;;;;;;10.69;100.00;100498.16;7397768;19;20750;-56
2021/12/31 02:48:24;;;;;;;20.80;6.20;;;;;;;10.63;100.00;100504.00;7402345;19;20433;-57
2021/12/31 02:50:58;;;;;;;14.47;5.30;;;;;;;10.65;100.00;100486.84;7402237;19;20426;-56
2021/12/31 02:53:33;;;;;;;14.93;5.73;;;;;;;10.63;100.00;100495.34;7397155;19;20392;-56
2021/12/31 02:56:13;;;;;;;12.40;6.40;;;;;;;10.66;100.00;100478.28;7401742;19;20861;-55
2021/12/31 02:58:43;;;;;;;14.73;6.20;;;;;;;10.65;100.00;100471.38;7396655;19;20495;-57
2021/12/31 03:01:13;;;;;;;11.77;5.00;;;;;;;10.63;100.00;100460.13;7405371;19;20409;-55
2021/12/31 03:03:43;;;;;;;12.20;4.63;;;;;;;10.61;100.00;100469.50;7399337;19;20388;-59
2021/12/31 03:06:16;;;;;;;14.10;6.70;;;;;;;10.67;100.00;100449.09;7401784;19;20932;-57
2021/12/31 03:08:48;;;;;;;17.83;6.40;;;;;;;10.63;100.00;100439.50;7395095;19;20490;-55
2021/12/31 03:11:21;;;;;;;14.00;6.10;;;;;;;10.65;100.00;100445.56;7401983;19;20388;-55
2021/12/31 03:13:52;;;;;;;16.03;5.10;;;;;;;10.66;100.00;100431.84;7396996;19;20435;-58
2021/12/31 03:16:23;;;;;;;10.90;5.10;;;;;;;10.69;100.00;100428.50;7401580;19;20403;-55
2021/12/31 03:18:55;;;;;;;12.27;5.57;;;;;;;10.67;100.00;100423.28;7397070;19;20468;-56
2021/12/31 03:21:27;;;;;;;14.57;4.73;;;;;;;10.70;100.00;100416.47;7401790;19;20386;-58
2021/12/31 03:23:58;;;;;;;10.87;5.30;;;;;;;10.70;100.00;100422.50;7397918;19;20415;-53
2021/12/31 03:26:27;;;;;;;13.73;5.50;;;;;;;10.70;100.00;100421.63;7400973;19;20380;-58
2021/12/31 03:28:57;;;;;;;13.97;4.70;;;;;;;10.69;100.00;100412.13;7393095;19;20430;-57
2021/12/31 03:31:27;;;;;;;18.17;5.60;;;;;;;10.68;100.00;100426.75;7401939;19;20394;-58
2021/12/31 03:33:56;;;;;;;5.10;2.33;;;;;;;10.68;100.00;100429.34;7397511;19;20415;-54
2021/12/31 03:36:28;;;;;;;11.60;5.10;;;;;;;10.69;100.00;100427.59;7400999;19;20388;-56
2021/12/31 03:38:58;;;;;;;19.67;4.70;;;;;;;10.66;100.00;100424.09;7396119;19;20406;-54
2021/12/31 03:41:27;;;;;;;15.33;4.93;;;;;;;10.64;100.00;100423.19;7405582;19;20404;-58
2021/12/31 03:43:56;;;;;;;13.80;4.63;;;;;;;10.63;100.00;100423.13;7397705;19;20416;-55
2021/12/31 03:46:26;;;;;;;15.27;5.13;;;;;;;10.67;100.00;100422.41;7400550;19;20884;-57
2021/12/31 03:48:55;;;;;;;5.93;3.73;;;;;;;10.66;100.00;100439.59;7396751;19;20423;-52
2021/12/31 03:51:28;;;;;;;6.10;3.67;;;;;;;10.66;100.00;100429.25;7401008;19;20459;-55
2021/12/31 03:53:57;;;;;;;15.77;4.53;;;;;;;10.67;100.00;100418.13;7395948;19;20757;-55
2021/12/31 03:56:30;;;;;;;10.97;4.13;;;;;;;10.68;100.00;100434.50;7399762;19;20475;-54
2021/12/31 03:59:00;;;;;;;12.20;4.20;;;;;;;10.66;100.00;100437.00;7396843;19;20429;-58
2021/12/31 04:01:30;;;;;;;13.73;4.47;;;;;;;10.66;100.00;100436.13;7400650;19;20867;-52
2021/12/31 04:04:00;;;;;;;16.83;4.60;;;;;;;10.65;100.00;100435.25;7397247;19;20419;-50
2021/12/31 04:06:32;;;;;;;13.87;4.53;;;;;;;10.63;100.00;100426.59;7399738;19;20400;-52
2021/12/31 04:09:02;;;;;;;13.43;4.50;;;;;;;10.69;100.00;100430.19;7398822;19;20418;-52
2021/12/31 04:11:31;;;;;;;6.30;3.60;;;;;;;10.66;100.00;100436.13;7400222;19;20394;-57
2021/12/31 04:14:00;;;;;;;15.57;4.20;;;;;;;10.65;100.00;100440.41;7394347;19;20749;-55
2021/12/31 04:16:30;;;;;;;14.27;3.50;;;;;;;10.64;100.00;100438.66;7399801;19;20469;-53
2021/12/31 04:19:00;;;;;;;7.17;4.33;;;;;;;10.63;100.00;100444.66;7393935;19;20411;-56
2021/12/31 04:21:33;;;;;;;11.23;4.67;;;;;;;10.63;100.00;100439.50;7399922;19;20448;-57
2021/12/31 04:24:14;;;;;;;16.70;3.63;;;;;;;10.58;100.00;100459.06;7395738;19;20434;-58
2021/12/31 04:26:44;;;;;;;19.70;4.53;;;;;;;10.63;100.00;100454.09;7399576;19;20718;-57
2021/12/31 04:29:13;;;;;;;8.80;3.20;;;;;;;10.60;100.00;100436.78;7396093;19;20415;-55
2021/12/31 04:31:43;;;;;;;11.50;3.83;;;;;;;10.62;100.00;100442.88;7399965;19;20392;-54
2021/12/31 04:34:13;;;;;;;14.43;4.27;;;;;;;10.59;100.00;100444.47;7392189;19;20439;-57
2021/12/31 04:36:45;;;;;;;12.20;4.30;;;;;;;10.58;100.00;100448.75;7398339;19;20706;-54
2021/12/31 04:39:14;;;;;;;10.80;4.10;;;;;;;10.59;100.00;100450.50;7395943;19;20415;-54
2021/12/31 04:41:44;;;;;;;10.93;3.70;;;;;;;10.57;100.00;100451.28;7399592;19;20383;-55
2021/12/31 04:44:13;;;;;;;14.57;4.30;;;;;;;10.56;100.00;100459.84;7394419;19;20409;-55
2021/12/31 04:46:43;;;;;;;10.77;3.40;;;;;;;10.55;100.00;100461.53;7400719;19;20460;-58
2021/12/31 04:49:12;;;;;;;14.10;4.47;;;;;;;10.54;100.00;100462.34;7396011;19;20391;-54
2021/12/31 04:51:48;;;;;;;7.70;3.60;;;;;;;10.54;100.00;100457.19;7399446;19;20406;-57
2021/12/31 04:54:18;;;;;;;17.40;3.47;;;;;;;10.58;100.00;100448.75;7394672;19;20419;-56
2021/12/31 04:56:52;;;;;;;6.30;2.40;;;;;;;10.60;100.00;100447.09;7398573;19;20396;-58
2021/12/31 04:59:21;;;;;;;10.33;2.40;;;;;;;10.63;100.00;100449.81;7394274;19;20741;-54
2021/12/31 05:01:56;;;;;;;10.70;3.90;;;;;;;10.65;100.00;100453.31;7399150;19;20843;-55
2021/12/31 05:04:26;;;;;;;11.60;3.40;;;;;;;10.65;100.00;100447.25;7395294;19;20413;-52
2021/12/31 05:06:59;;;;;;;9.30;3.20;;;;;;;10.66;100.00;100467.97;7399673;19;20417;-55
2021/12/31 05:09:29;;;;;;;13.50;3.77;;;;;;;10.71;100.00;100462.09;7394115;19;20422;-54
2021/12/31 05:11:58;;;;;;;10.50;3.70;;;;;;;10.66;100.00;100452.50;7398681;19;20685;-57
2021/12/31 05:14:28;;;;;;;10.70;3.67;;;;;;;10.68;100.00;100457.72;7394120;19;20470;-55
2021/12/31 05:16:58;;;;;;;11.20;4.03;;;;;;;10.72;100.00;100461.28;7397775;19;20422;-58
2021/12/31 05:19:27;;;;;;;11.50;3.70;;;;;;;10.75;100.00;100469.13;7393276;19;20427;-57
2021/12/31 05:21:59;;;;;;;14.67;3.37;;;;;;;10.72;100.00;100463.84;7398586;19;20398;-54
2021/12/31 05:24:29;;;;;;;12.43;3.37;;;;;;;10.77;100.00;100470.06;7394193;19;20480;-57
2021/12/31 05:26:58;;;;;;;6.30;2.40;;;;;;;10.77;100.00;100459.75;7397201;19;20396;-57
2021/12/31 05:29:28;;;;;;;11.20;4.40;;;;;;;10.80;100.00;100462.44;7394169;19;20488;-55
2021/12/31 05:31:57;;;;;;;5.90;2.70;;;;;;;10.79;100.00;100463.25;7401162;19;20467;-58
2021/12/31 05:34:27;;;;;;;8.23;2.90;;;;;;;10.80;100.00;100462.44;7399590;19;20479;-56
2021/12/31 05:36:59;;;;;;;11.63;3.87;;;;;;;10.83;100.00;100470.28;7404377;19;20423;-53
2021/12/31 05:39:29;;;;;;;8.10;3.77;;;;;;;10.86;100.00;100472.13;7399533;19;20484;-55
2021/12/31 05:41:59;;;;;;;15.80;3.43;;;;;;;10.85;100.00;100476.38;7405338;19;20448;-54
2021/12/31 05:44:28;;;;;;;9.60;3.60;;;;;;;10.84;100.00;100469.47;7401611;19;20491;-54
2021/12/31 05:46:57;;;;;;;15.67;4.77;;;;;;;10.87;100.00;100471.28;7403700;19;20396;-55
2021/12/31 05:49:30;;;;;;;14.97;3.40;;;;;;;10.87;100.00;100477.31;7398567;19;20456;-52
2021/12/31 05:52:02;;;;;;;6.50;2.90;;;;;;;10.87;100.00;100477.31;7409410;19;20861;-57
2021/12/31 05:54:31;;;;;;;10.13;2.77;;;;;;;10.90;100.00;100480.00;7400030;19;20466;-54
2021/12/31 05:57:01;;;;;;;9.40;2.90;;;;;;;10.93;100.00;100482.69;7403986;19;20455;-58
2021/12/31 05:59:30;;;;;;;14.00;2.80;;;;;;;10.89;100.00;100486.00;7402997;19;20431;-51
2021/12/31 06:02:00;;;;;;;11.83;3.30;;;;;;;10.91;100.00;100478.28;7404760;19;20396;-57
2021/12/31 06:04:29;;;;;;;9.67;3.00;;;;;;;10.91;100.00;100479.19;7397764;19;20866;-52
2021/12/31 06:07:02;;;;;;;8.33;2.90;;;;;;;10.89;100.00;100480.84;7403882;19;20450;-55
2021/12/31 06:09:32;;;;;;;9.00;4.50;;;;;;;10.90;100.00;100490.34;7398461;19;20414;-55
2021/12/31 06:12:02;;;;;;;3.47;2.40;;;;;;;10.89;100.00;100480.84;7404470;19;20399;-55
2021/12/31 06:14:31;;;;;;;8.80;3.50;;;;;;;10.93;100.00;100481.81;7398181;19;20441;-55
2021/12/31 06:17:06;;;;;;;11.10;3.60;;;;;;;10.93;100.00;100472.38;7405624;19;20405;-51
2021/12/31 06:19:36;;;;;;;14.03;4.43;;;;;;;10.90;100.00;100464.53;7399628;19;20419;-56
2021/12/31 06:22:15;;;;;;;15.90;4.57;;;;;;;10.90;100.00;100455.88;7404079;19;20405;-54
2021/12/31 06:24:44;;;;;;;8.30;3.17;;;;;;;10.94;100.00;100460.34;7399483;19;20439;-54
2021/12/31 06:27:14;;;;;;;9.93;3.70;;;;;;;10.94;100.00;100448.31;7402550;19;20938;-55
2021/12/31 06:29:43;;;;;;;10.83;4.30;;;;;;;10.99;100.00;100452.75;7399534;19;20423;-56
2021/12/31 06:32:13;;;;;;;13.23;4.80;;;;;;;10.96;100.00;100458.69;7403909;19;20393;-53
2021/12/31 06:34:43;;;;;;;9.63;4.57;;;;;;;10.96;100.00;100444.94;7399392;19;20485;-54
2021/12/31 06:37:15;;;;;;;14.27;5.60;;;;;;;10.98;100.00;100456.16;7402281;19;20403;-55
2021/12/31 06:39:46;;;;;;;8.00;4.70;;;;;;;10.99;100.00;100451.06;7398960;19;20472;-56
2021/12/31 06:42:15;;;;;;;8.83;4.50;;;;;;;10.97;100.00;100447.53;7402942;19;20399;-56
2021/12/31 06:44:45;;;;;;;14.77;5.60;;;;;;;10.96;100.00;100444.94;7397531;19;20416;-53
2021/12/31 06:47:14;;;;;;;7.97;4.37;;;;;;;10.92;100.00;100451.69;7402007;19;20484;-54
2021/12/31 06:49:44;;;;;;;12.50;5.30;;;;;;;10.89;100.00;100434.38;7399898;19;20873;-56
2021/12/31 06:52:16;;;;;;;10.87;5.50;;;;;;;10.86;100.00;100448.88;7403107;19;20399;-56
2021/12/31 06:54:45;;;;;;;9.47;5.93;;;;;;;10.83;100.00;100439.31;7398862;19;20420;-55
2021/12/31 06:57:15;;;;;;;13.00;5.50;;;;;;;10.82;100.00;100442.69;7401698;19;20406;-51
2021/12/31 06:59:45;;;;;;;9.53;4.83;;;;;;;10.82;100.00;100452.16;7398955;19;20407;-51
2021/12/31 07:02:15;;;;;;;10.00;5.63;;;;;;;10.86;100.00;100460.06;7402981;19;20406;-52
2021/12/31 07:04:44;;;;;;;11.80;5.37;;;;;;;10.87;100.00;100454.06;7400445;19;20445;-54
2021/12/31 07:07:16;;;;;;;9.53;5.00;;;;;;;10.84;100.00;100472.06;7401446;19;20476;-55
2021/12/31 07:09:46;;;;;;;7.73;4.70;;;;;;;10.87;100.00;100471.28;7396337;19;20475;-54
2021/12/31 07:12:15;;;;;;;12.03;6.03;;;;;;;10.88;100.00;100461.00;7402547;19;20387;-55
2021/12/31 07:14:45;;;;;;;8.87;5.97;;;;;;;10.87;100.00;100466.97;7396707;19;20511;-52
2021/12/31 07:29:22;;;;;;;14.00;6.43;;;;;;;10.86;100.00;100442.00;7279489;19;2905886;-51
2021/12/31 07:31:52;;;;;;;8.67;5.70;;;;;;;10.86;100.00;100439.41;7435212;19;20177;-51
2021/12/31 07:34:21;;;;;;;5.60;4.80;;;;;;;10.88;100.00;100429.16;7430810;19;20417;-55
2021/12/31 07:36:51;;;;;;;8.80;4.97;;;;;;;10.90;100.00;100430.09;7435039;19;20385;-51
2021/12/31 07:39:24;;;;;;;8.37;3.70;;;;;;;10.92;100.00;100428.44;7428401;19;20856;-51
2021/12/31 07:41:53;;;;;;;11.40;6.70;;;;;;;11.04;100.00;100430.56;7434736;19;20393;-51
2021/12/31 07:44:25;;;;;;;6.53;3.83;;;;;;;11.00;100.00;100436.44;7430635;19;20751;-51
2021/12/31 07:46:56;;;;;;;8.30;5.97;;;;;;;11.01;100.00;100445.94;7435231;19;20425;-53
2021/12/31 07:49:25;;;;;;;10.60;4.97;;;;;;;10.99;100.00;100450.19;7427220;19;20406;-54
2021/12/31 07:51:54;;;;;;;10.80;6.90;;;;;;;11.07;100.00;100459.94;7435128;19;20750;-53
2021/12/31 07:54:24;;;;;;;10.33;4.40;;;;;;;11.01;100.00;100464.00;7430036;19;20406;-54
2021/12/31 07:56:54;;;;;;;6.30;3.87;;;;;;;11.06;100.00;100463.38;7436816;19;20402;-56
2021/12/31 07:59:26;;;;;;;8.43;5.67;;;;;;;11.11;100.00;100466.09;7427740;19;20482;-57
2021/12/31 08:01:55;;;;;;;10.60;5.97;;;;;;;11.08;100.00;100453.97;7434373;19;20386;-53
2021/12/31 08:04:25;;;;;;;7.80;4.80;;;;;;;11.05;100.00;100460.72;7432668;19;20780;-50
2021/12/31 08:06:55;;;;;;;8.07;5.60;;;;;;;11.10;100.00;100442.81;7434625;19;20403;-54
2021/12/31 08:09:25;;;;;;;9.83;4.97;;;;;;;11.06;100.00;100450.47;7425292;19;20468;-52
2021/12/31 08:11:54;;;;;;;8.80;6.20;;;;;;;11.09;100.00;100452.28;7433711;19;20398;-53
2021/12/31 08:14:26;;;;;;;6.70;5.83;;;;;;;11.08;100.00;100460.84;7429771;19;20492;-51
2021/12/31 08:16:56;;;;;;;10.73;7.43;;;;;;;11.10;100.00;100447.97;7433732;19;20393;-52
2021/12/31 08:19:26;;;;;;;6.73;4.60;;;;;;;11.05;100.00;100465.88;7427210;19;20486;-54
2021/12/31 08:21:55;;;;;;;10.77;5.57;;;;;;;11.08;100.00;100466.00;7433144;19;20381;-50
2021/12/31 08:24:25;;;;;;;12.23;6.77;;;;;;;11.09;100.00;100470.34;7429286;19;20409;-55
2021/12/31 08:26:55;;;;;;;9.07;6.73;;;;;;;11.12;100.00;100474.75;7435393;19;20397;-54
2021/12/31 08:29:27;;;;;;;17.73;6.83;;;;;;;11.09;100.00;100467.75;7409589;19;20443;-53
2021/12/31 08:31:57;;;;;;;10.30;6.87;;;;;;;11.13;100.00;100466.16;7404549;19;20405;-51
2021/12/31 08:34:26;;;;;;;10.10;4.00;;;;;;;11.08;100.00;100453.09;7400305;19;20418;-54
2021/12/31 08:36:56;;;;;;;9.03;5.00;;;;;;;11.14;100.00;100460.16;7404655;19;20400;-53
2021/12/31 08:39:26;;;;;;;7.73;5.37;;;;;;;11.13;100.00;100461.00;7398447;19;20405;-52
2021/12/31 08:41:55;;;;;;;9.63;5.93;;;;;;;11.13;100.00;100467.03;7404196;19;20464;-50
2021/12/31 08:44:28;;;;;;;7.47;5.70;;;;;;;11.16;100.00;100454.22;7400240;19;20497;-49
2021/12/31 08:46:58;;;;;;;10.63;5.80;;;;;;;11.20;100.00;100445.78;7403959;19;20442;-53
2021/12/31 08:49:27;;;;;;;7.53;4.67;;;;;;;11.21;100.00;100447.53;7397854;19;20418;-48
2021/12/31 08:51:57;;;;;;;11.90;6.27;;;;;;;11.23;100.00;100451.88;7403835;19;20400;-53
2021/12/31 08:54:26;;;;;;;8.63;6.23;;;;;;;11.28;100.00;100453.75;7399756;19;20880;-50
2021/12/31 08:56:58;;;;;;;7.83;5.00;;;;;;;11.26;100.00;100451.94;7403750;19;20396;-49
2021/12/31 08:59:30;;;;;;;11.03;5.40;;;;;;;11.28;100.00;100448.59;7396885;19;20741;-55
2021/12/31 09:02:00;;;;;;;6.70;4.50;;;;;;;11.30;100.00;100443.50;7403240;19;20390;-53
2021/12/31 09:04:30;;;;;;;6.03;4.33;;;;;;;11.34;100.00;100468.59;7399461;19;20855;-53
2021/12/31 09:07:00;;;;;;;8.43;4.97;;;;;;;11.30;100.00;100461.56;7403068;19;20471;-53
2021/12/31 09:09:29;;;;;;;11.23;6.40;;;;;;;11.37;100.00;100467.84;7398387;19;21246;-51
2021/12/31 09:11:59;;;;;;;7.83;4.50;;;;;;;11.38;100.00;100474.75;7403325;19;20395;-53
2021/12/31 09:14:31;;;;;;;7.90;4.00;;;;;;;11.34;100.00;100468.59;7398282;19;20439;-51
2021/12/31 09:17:00;;;;;;;8.23;4.60;;;;;;;11.40;100.00;100476.56;7400165;19;20426;-54
2021/12/31 09:19:30;;;;;;;4.90;3.23;;;;;;;11.39;100.00;100471.34;7396346;19;20521;-53
2021/12/31 09:21:59;;;;;;;7.40;4.03;;;;;;;11.41;100.00;100480.00;7403227;19;20395;-50
2021/12/31 09:24:29;;;;;;;7.00;4.07;;;;;;;11.42;100.00;100472.31;7398638;19;20399;-51
2021/12/31 09:26:58;;;;;;;9.47;4.30;;;;;;;11.40;100.00;100476.56;7404595;19;20728;-52
2021/12/31 09:29:30;;;;;;;7.90;4.63;;;;;;;11.45;100.00;100482.75;7396858;19;20461;-51
2021/12/31 09:32:00;;;;;;;7.00;4.60;;;;;;;11.44;100.00;100481.00;7402289;19;20465;-56
2021/12/31 09:34:30;;;;;;;5.93;3.70;;;;;;;11.48;100.00;100489.72;7396809;19;20426;-52
2021/12/31 09:36:59;;;;;;;12.90;4.13;;;;;;;11.54;100.00;100470.97;7402310;19;20852;-53
2021/12/31 09:39:28;;;;;;;4.63;2.80;;;;;;;11.60;100.00;100481.53;7396185;19;20485;-54
2021/12/31 09:41:58;;;;;;;51.40;25.40;;;;;;;11.99;100.00;100496.56;7399589;19;20405;-50
2021/12/31 09:44:27;;;;;;;52.43;22.10;;;;;;;12.04;100.00;100503.63;7396675;19;20490;-54
2021/12/31 09:47:02;;;;;;;45.70;21.70;;;;;;;11.96;100.00;100499.06;7402133;19;20393;-53
2021/12/31 09:49:32;;;;;;;37.53;15.07;;;;;;;12.15;100.00;100509.97;7396373;19;20931;-50
2021/12/31 09:52:01;;;;;;;53.10;23.20;;;;;;;12.12;100.00;100512.50;7402718;19;20457;-51
2021/12/31 09:54:31;;;;;;;69.20;32.70;;;;;;;12.15;100.00;100495.38;7399052;19;20747;-49
2021/12/31 09:57:02;;;;;;;23.80;9.83;;;;;;;12.11;100.00;100496.09;7401588;19;20464;-53
2021/12/31 09:59:32;;;;;;;40.07;19.40;;;;;;;12.25;100.00;100508.59;7395108;19;20419;-51
2021/12/31 10:02:04;;;;;;;23.03;7.70;;;;;;;12.18;100.00;100510.09;7402271;19;20471;-49
2021/12/31 10:04:52;;;;;;;15.17;8.30;;;;;;;12.22;100.00;100493.84;7395630;19;20465;-50
2021/12/31 10:07:23;;;;;;;12.70;7.70;;;;;;;12.28;100.00;100501.81;7400230;19;20906;-50
2021/12/31 10:10:12;;;;;;;55.20;26.57;;;;;;;12.20;100.00;100504.97;7397339;19;20423;-51
2021/12/31 10:12:52;;;;;;;63.97;30.37;;;;;;;12.19;100.00;100504.09;7400688;19;20452;-52
2021/12/31 10:15:24;;;;;;;16.90;8.07;;;;;;;12.25;100.00;100509.44;7396602;19;20479;-48
2021/12/31 10:17:57;;;;;;;24.10;10.73;;;;;;;12.28;100.00;100514.75;7399295;19;20705;-52
2021/12/31 10:20:26;;;;;;;6.03;2.60;;;;;;;12.11;100.00;100513.31;7394884;19;20483;-51
2021/12/31 10:23:14;;;;;;;3.60;2.80;;;;;;;12.11;100.00;100515.91;7400489;19;20394;-51
2021/12/31 10:25:44;;;;;;;3.80;2.70;;;;;;;12.07;100.00;100514.94;7396353;19;20876;-50
2021/12/31 10:28:15;;;;;;;8.40;3.50;;;;;;;12.04;100.00;100516.56;7398996;19;20484;-48
2021/12/31 10:30:45;;;;;;;5.13;3.20;;;;;;;12.06;100.00;100512.31;7397366;19;20412;-52
2021/12/31 10:33:18;;;;;;;6.90;2.50;;;;;;;11.99;100.00;100511.19;7399479;19;20402;-51
2021/12/31 10:35:48;;;;;;;4.87;2.30;;;;;;;12.02;100.00;100509.56;7394604;19;20436;-47
2021/12/31 10:38:18;;;;;;;5.07;2.73;;;;;;;11.97;100.00;100505.97;7398588;19;20421;-51
2021/12/31 10:40:48;;;;;;;7.60;3.43;;;;;;;11.99;100.00;100500.84;7395979;19;20437;-50
2021/12/31 10:43:21;;;;;;;4.60;2.83;;;;;;;12.00;100.00;100505.19;7400000;19;20400;-51
2021/12/31 10:46:02;;;;;;;8.03;3.47;;;;;;;11.97;100.00;100503.41;7395823;19;20450;-47
2021/12/31 10:48:48;;;;;;;6.73;2.93;;;;;;;11.96;100.00;100506.81;7397220;19;20440;-55
2021/12/31 10:51:19;;;;;;;5.00;2.60;;;;;;;11.97;100.00;100505.09;7398076;19;20399;-54
2021/12/31 10:53:54;;;;;;;7.20;3.10;;;;;;;11.91;100.00;100503.19;7398850;19;20480;-56
2021/12/31 10:56:41;;;;;;;3.53;2.30;;;;;;;11.92;100.00;100510.13;7399544;19;20391;-52
2021/12/31 10:59:11;;;;;;;5.17;2.53;;;;;;;11.90;100.00;100511.78;7397350;19;20727;-53
2021/12/31 11:01:42;;;;;;;8.30;2.87;;;;;;;11.95;100.00;100510.19;7398924;19;20446;-52
2021/12/31 11:04:15;;;;;;;6.33;2.20;;;;;;;11.87;100.00;100506.50;7399354;19;20405;-50
2021/12/31 11:06:45;;;;;;;6.67;2.07;;;;;;;11.91;100.00;100497.13;7399162;19;20401;-48
2021/12/31 11:09:16;;;;;;;6.23;2.77;;;;;;;11.97;100.00;100505.97;7395240;19;20430;-49
2021/12/31 11:11:48;;;;;;;9.03;2.30;;;;;;;11.91;100.00;100491.97;7399049;19;20390;-54
2021/12/31 11:14:19;;;;;;;16.70;3.27;;;;;;;11.95;100.00;100504.16;7399182;19;20449;-53
2021/12/31 11:16:48;;;;;;;5.87;2.27;;;;;;;11.90;100.00;100511.78;7396952;19;20482;-51
2021/12/31 11:19:21;;;;;;;4.20;2.10;;;;;;;11.97;100.00;100487.00;7395878;19;20494;-51
2021/12/31 11:21:51;;;;;;;4.43;2.70;;;;;;;12.01;100.00;100494.88;7398483;19;20457;-52
2021/12/31 11:24:31;;;;;;;11.00;3.07;;;;;;;11.97;100.00;100498.22;7394939;19;20430;-52
2021/12/31 11:27:01;;;;;;;3.97;2.17;;;;;;;11.97;100.00;100508.56;7401386;19;20406;-55
2021/12/31 11:29:40;;;;;;;6.27;3.10;;;;;;;12.00;100.00;100506.06;7393921;19;20484;-52
2021/12/31 11:32:09;;;;;;;5.70;2.37;;;;;;;12.00;100.00;100497.44;7398790;19;20395;-50
2021/12/31 11:34:41;;;;;;;3.90;2.53;;;;;;;11.94;100.00;100495.53;7393168;19;20409;-47
2021/12/31 11:37:11;;;;;;;4.83;2.20;;;;;;;11.89;100.00;100508.31;7396726;19;20438;-49
2021/12/31 11:39:41;;;;;;;7.30;4.20;;;;;;;11.91;100.00;100487.69;7393190;19;20497;-53
2021/12/31 11:42:11;;;;;;;7.80;2.90;;;;;;;11.84;100.00;100490.91;7398094;19;20449;-49